Time;durP1;ratioP1;P1;durP2;ratioP2;P2;SDS_P1;SDS_P2;PMS_P1;PMS_P2;Temp;Humidity;BMP_temperature;BMP_pressure;BME280_temperature;BME280_humidity;BME280_pressure;Samples;Min_cycle;Max_cycle;Signal;HPM_P1;HPM_P2
2023/09/11 00:02:34;;;;;;;9.00;7.20;;;;;;;17.78;100.00;100672.84;6324419;28;20405;-88
2023/09/11 00:05:36;;;;;;;8.30;6.55;;;;;;;17.75;100.00;100675.78;6330303;28;20564;-88
2023/09/11 00:08:39;;;;;;;8.85;6.72;;;;;;;17.69;100.00;100663.34;6319458;28;20118;-88
2023/09/11 00:11:41;;;;;;;10.60;7.32;;;;;;;17.65;100.00;100671.53;6321086;28;20039;-88
2023/09/11 00:14:43;;;;;;;8.85;7.13;;;;;;;17.61;100.00;100659.75;6323335;28;20051;-88
2023/09/11 00:17:45;;;;;;;9.10;7.30;;;;;;;17.61;100.00;100653.69;6324154;28;20100;-88
2023/09/11 00:20:48;;;;;;;9.02;7.35;;;;;;;17.58;100.00;100651.41;6327177;28;20364;-88
2023/09/11 00:23:50;;;;;;;8.57;7.25;;;;;;;17.55;100.00;100649.94;6322069;28;21092;-88
2023/09/11 00:26:52;;;;;;;7.85;6.85;;;;;;;17.51;100.00;100653.84;6318004;28;20032;-88
2023/09/11 00:29:55;;;;;;;11.13;7.68;;;;;;;17.48;100.00;100648.94;6320458;28;20188;-88
2023/09/11 00:32:57;;;;;;;8.20;7.25;;;;;;;17.44;100.00;100647.66;6322220;28;20047;-88
2023/09/11 00:35:59;;;;;;;8.80;7.45;;;;;;;17.43;100.00;100649.44;6336880;28;20519;-88
2023/09/11 00:39:01;;;;;;;8.10;7.00;;;;;;;17.41;100.00;100650.56;6324610;28;20044;-88
2023/09/11 00:42:03;;;;;;;7.68;6.88;;;;;;;17.39;100.00;100644.69;6314160;28;20082;-88
2023/09/11 00:45:05;;;;;;;8.32;7.13;;;;;;;17.34;100.00;100646.97;6321066;28;20040;-88
2023/09/11 00:48:09;;;;;;;9.23;7.13;;;;;;;17.32;100.00;100643.72;6332006;28;20044;-88
2023/09/11 00:51:11;;;;;;;8.27;7.18;;;;;;;17.28;100.00;100630.13;6323923;28;20044;-88
2023/09/11 00:54:14;;;;;;;9.23;7.18;;;;;;;17.27;100.00;100630.31;6322175;28;20460;-88
2023/09/11 00:57:18;;;;;;;10.00;7.70;;;;;;;17.23;100.00;100622.75;6317581;28;20036;-88
2023/09/11 01:00:21;;;;;;;9.65;7.05;;;;;;;17.21;100.00;100623.91;6331724;28;20046;-89
2023/09/11 01:03:23;;;;;;;8.88;7.45;;;;;;;17.16;100.00;100613.09;6325374;28;20412;-88
2023/09/11 01:06:26;;;;;;;8.75;7.00;;;;;;;17.14;100.00;100615.91;6323264;28;20461;-88
2023/09/11 01:09:28;;;;;;;8.95;6.93;;;;;;;17.12;100.00;100611.81;6322455;28;20500;-88
2023/09/11 01:12:29;;;;;;;9.38;7.53;;;;;;;17.08;100.00;100608.69;6319605;28;20040;-88
2023/09/11 01:15:38;;;;;;;9.77;7.70;;;;;;;17.09;100.00;100604.25;6315208;28;20413;-88
2023/09/11 01:18:50;;;;;;;8.95;7.80;;;;;;;17.08;100.00;100597.41;6330907;28;20040;-88
2023/09/11 01:21:54;;;;;;;11.18;7.40;;;;;;;17.05;100.00;100595.94;6329214;28;20040;-88
2023/09/11 01:25:20;;;;;;;9.63;8.52;;;;;;;17.03;100.00;100592.66;6320741;28;20031;-88
2023/09/11 01:28:31;;;;;;;11.23;7.90;;;;;;;16.99;100.00;100592.19;6324112;28;20044;-88
2023/09/11 01:31:36;;;;;;;12.85;8.48;;;;;;;16.99;100.00;100589.56;6318909;28;20039;-88
2023/09/11 01:34:38;;;;;;;12.20;8.27;;;;;;;16.95;100.00;100588.25;6316349;28;20560;-88
2023/09/11 01:37:40;;;;;;;9.65;8.23;;;;;;;16.93;100.00;100587.56;6328898;28;20384;-88
2023/09/11 01:40:45;;;;;;;11.50;8.77;;;;;;;16.92;100.00;100590.38;6320726;28;20050;-88
2023/09/11 01:43:48;;;;;;;10.38;9.27;;;;;;;16.91;100.00;100597.38;6328166;28;20066;-88
2023/09/11 01:46:53;;;;;;;13.43;8.98;;;;;;;16.86;100.00;100597.03;6333474;28;20050;-88
2023/09/11 01:49:57;;;;;;;14.15;9.13;;;;;;;16.85;100.00;100605.06;6334849;28;20044;-88
2023/09/11 01:52:59;;;;;;;10.13;9.07;;;;;;;16.82;100.00;100600.97;6330471;28;20067;-88
2023/09/11 01:56:02;;;;;;;12.27;9.07;;;;;;;16.76;100.00;100604.19;6332131;28;20406;-88
2023/09/11 01:59:03;;;;;;;11.93;9.25;;;;;;;16.76;100.00;100601.56;6331752;28;20048;-88
2023/09/11 02:02:06;;;;;;;12.70;8.55;;;;;;;16.74;100.00;100598.28;6328960;28;21089;-88
2023/09/11 02:05:08;;;;;;;12.07;9.52;;;;;;;16.69;100.00;100600.56;6324879;28;20369;-88
2023/09/11 02:08:10;;;;;;;11.02;8.60;;;;;;;16.65;100.00;100588.81;6335539;28;20032;-88
2023/09/11 02:11:12;;;;;;;10.35;8.68;;;;;;;16.62;100.00;100589.94;6323449;28;20047;-88
2023/09/11 02:14:14;;;;;;;10.80;8.63;;;;;;;16.64;100.00;100580.13;6327525;28;20096;-88
2023/09/11 02:17:16;;;;;;;9.63;8.27;;;;;;;16.64;100.00;100576.69;6325824;28;20105;-88
2023/09/11 02:20:18;;;;;;;12.38;9.27;;;;;;;16.63;100.00;100580.31;6321968;28;20402;-88
2023/09/11 02:23:22;;;;;;;9.13;8.20;;;;;;;16.64;100.00;100574.91;6322085;28;20032;-88
2023/09/11 02:26:24;;;;;;;9.18;8.20;;;;;;;16.65;100.00;100578.34;6328111;28;20136;-88
2023/09/11 02:29:26;;;;;;;12.40;8.20;;;;;;;16.62;100.00;100574.25;6334164;28;20048;-88
2023/09/11 02:32:29;;;;;;;13.00;8.57;;;;;;;16.57;100.00;100571.28;6324460;28;20453;-88
2023/09/11 02:35:31;;;;;;;9.55;8.52;;;;;;;16.58;100.00;100572.94;6327961;28;20516;-88
2023/09/11 02:38:34;;;;;;;9.93;7.95;;;;;;;16.66;100.00;100572.13;6333946;28;20575;-88
2023/09/11 02:41:36;;;;;;;10.57;8.43;;;;;;;16.71;100.00;100567.25;6316710;28;20051;-88
2023/09/11 02:44:38;;;;;;;12.13;8.80;;;;;;;16.72;100.00;100568.88;6319267;28;20509;-88
2023/09/11 02:47:40;;;;;;;12.20;8.52;;;;;;;16.66;100.00;100565.09;6321323;28;20131;-88
2023/09/11 02:50:42;;;;;;;11.50;8.32;;;;;;;16.60;100.00;100560.53;6325090;28;20078;-88
2023/09/11 02:53:44;;;;;;;14.93;8.32;;;;;;;16.61;100.00;100561.34;6338584;28;20515;-88
2023/09/11 02:56:46;;;;;;;11.68;8.98;;;;;;;16.60;100.00;100564.94;6336345;28;20078;-88
2023/09/11 02:59:48;;;;;;;9.13;8.18;;;;;;;16.54;100.00;100559.34;6318035;28;20109;-88
2023/09/11 03:02:50;;;;;;;12.40;8.50;;;;;;;16.55;100.00;100557.59;6337153;28;20042;-88
2023/09/11 03:06:00;;;;;;;9.82;8.35;;;;;;;16.52;100.00;100552.66;6332014;28;20031;-88
2023/09/11 03:09:04;;;;;;;10.77;8.88;;;;;;;16.49;100.00;100548.56;6326784;28;20044;-88
2023/09/11 03:12:06;;;;;;;9.32;7.90;;;;;;;16.47;100.00;100545.31;6302858;28;20375;-88
2023/09/11 03:15:09;;;;;;;11.15;8.20;;;;;;;16.40;100.00;100539.09;6323392;28;20090;-88
2023/09/11 03:18:11;;;;;;;8.82;7.93;;;;;;;16.39;100.00;100549.69;6323815;28;20040;-88
2023/09/11 03:21:13;;;;;;;9.90;7.85;;;;;;;16.39;100.00;100553.09;6318559;28;20051;-88
2023/09/11 03:24:16;;;;;;;13.05;8.15;;;;;;;16.35;100.00;100541.34;6307282;28;20465;-88
2023/09/11 03:27:17;;;;;;;11.38;8.95;;;;;;;16.30;100.00;100538.41;6327449;28;20192;-88
2023/09/11 03:30:20;;;;;;;11.77;8.70;;;;;;;16.27;100.00;100538.69;6328671;28;20047;-88
2023/09/11 03:33:24;;;;;;;9.57;8.30;;;;;;;16.25;100.00;100545.91;6326167;28;20051;-88
2023/09/11 03:36:26;;;;;;;11.73;8.98;;;;;;;16.25;100.00;100540.66;6322854;28;20051;-88
2023/09/11 03:39:28;;;;;;;11.52;8.88;;;;;;;16.20;100.00;100535.06;6310446;28;20036;-88
2023/09/11 03:42:30;;;;;;;11.77;9.38;;;;;;;16.17;100.00;100528.38;6330989;27;20076;-88
2023/09/11 03:45:32;;;;;;;10.30;8.85;;;;;;;16.15;100.00;100519.91;6326922;28;20617;-88
2023/09/11 03:48:34;;;;;;;10.80;9.32;;;;;;;16.14;100.00;100528.69;6329040;28;20061;-88
2023/09/11 03:51:36;;;;;;;12.57;9.23;;;;;;;16.13;100.00;100530.50;6333773;28;20054;-88
2023/09/11 03:54:38;;;;;;;17.45;8.93;;;;;;;16.11;100.00;100537.66;6332965;28;20424;-88
2023/09/11 03:57:41;;;;;;;9.68;8.63;;;;;;;16.09;100.00;100526.53;6328222;28;20124;-88
2023/09/11 04:00:44;;;;;;;12.50;9.30;;;;;;;16.09;100.00;100525.75;6301807;28;20048;-88
2023/09/11 04:03:46;;;;;;;13.80;9.85;;;;;;;16.07;100.00;100525.91;6332798;28;20429;-88
2023/09/11 04:06:48;;;;;;;14.05;9.77;;;;;;;16.09;100.00;100523.94;6328504;28;20130;-88
2023/09/11 04:09:50;;;;;;;15.15;10.07;;;;;;;16.09;100.00;100526.53;6334762;28;20756;-88
2023/09/11 04:12:52;;;;;;;13.50;9.18;;;;;;;16.13;100.00;100524.47;6313444;28;20040;-88
2023/09/11 04:15:54;;;;;;;12.15;9.32;;;;;;;16.10;100.00;100524.78;6316625;28;20126;-88
2023/09/11 04:18:57;;;;;;;14.02;10.13;;;;;;;16.10;100.00;100525.59;6329190;28;20452;-88
2023/09/11 04:21:59;;;;;;;11.60;9.48;;;;;;;16.07;100.00;100517.22;6330666;28;20040;-88
2023/09/11 04:25:01;;;;;;;15.30;10.05;;;;;;;16.16;100.00;100518.91;6323279;28;20040;-88
2023/09/11 04:28:04;;;;;;;13.48;8.85;;;;;;;16.17;100.00;100514.50;6328964;28;20509;-88
2023/09/11 04:31:05;;;;;;;14.93;9.80;;;;;;;16.15;100.00;100509.44;6335009;28;20054;-88
2023/09/11 04:34:08;;;;;;;17.38;9.85;;;;;;;16.15;100.00;100506.84;6322678;28;20527;-88
2023/09/11 04:37:10;;;;;;;14.38;9.48;;;;;;;16.15;100.00;100510.25;6322503;28;20043;-87
2023/09/11 04:40:12;;;;;;;15.60;9.70;;;;;;;16.15;100.00;100507.66;6326006;28;20053;-87
2023/09/11 04:43:14;;;;;;;13.35;9.75;;;;;;;16.05;100.00;100512.19;6323950;28;20509;-87
2023/09/11 04:46:16;;;;;;;9.88;8.85;;;;;;;15.96;100.00;100513.13;6329735;28;20048;-88
2023/09/11 04:49:18;;;;;;;11.68;9.05;;;;;;;15.96;100.00;100512.31;6322171;28;20112;-87
2023/09/11 04:52:20;;;;;;;12.23;9.68;;;;;;;15.91;100.00;100505.75;6304165;28;20040;-87
2023/09/11 04:55:23;;;;;;;12.63;9.85;;;;;;;15.92;100.00;100510.03;6317576;28;20047;-87
2023/09/11 04:58:25;;;;;;;12.52;9.52;;;;;;;15.97;100.00;100508.72;6328742;28;20122;-87
2023/09/11 05:01:28;;;;;;;15.25;10.18;;;;;;;15.98;100.00;100508.56;6320055;28;20149;-87
2023/09/11 05:04:30;;;;;;;12.45;9.70;;;;;;;15.98;100.00;100508.56;6323084;28;20032;-88
2023/09/11 05:07:33;;;;;;;14.75;9.85;;;;;;;16.02;100.00;100509.06;6327774;28;20043;-87
2023/09/11 05:10:40;;;;;;;11.43;9.50;;;;;;;16.05;100.00;100514.81;6332677;28;20119;-88
2023/09/11 05:13:42;;;;;;;15.27;9.43;;;;;;;16.08;100.00;100518.88;6336434;28;20054;-87
2023/09/11 05:16:44;;;;;;;11.20;9.68;;;;;;;16.11;100.00;100519.38;6334605;28;20040;-88
2023/09/11 05:19:46;;;;;;;11.75;9.00;;;;;;;16.14;100.00;100518.25;6315115;28;20412;-87
2023/09/11 05:22:48;;;;;;;12.23;9.05;;;;;;;16.16;100.00;100518.91;6322834;28;20043;-87
2023/09/11 05:25:50;;;;;;;12.13;9.52;;;;;;;16.19;100.00;100515.16;6331288;28;20036;-87
2023/09/11 05:28:52;;;;;;;14.45;9.90;;;;;;;16.23;100.00;100514.69;6321001;28;20541;-87
2023/09/11 05:31:54;;;;;;;14.55;9.73;;;;;;;16.23;100.00;100516.50;6332132;28;20047;-87
2023/09/11 05:34:57;;;;;;;12.77;9.68;;;;;;;16.25;100.00;100515.38;6326896;28;20545;-87
2023/09/11 05:37:59;;;;;;;11.45;8.85;;;;;;;16.27;100.00;100512.56;6326561;28;20035;-87
2023/09/11 05:41:00;;;;;;;13.30;9.75;;;;;;;16.33;100.00;100517.19;6326731;28;20100;-87
2023/09/11 05:44:03;;;;;;;12.30;9.77;;;;;;;16.40;100.00;100518.19;6322012;28;20048;-87
2023/09/11 05:47:07;;;;;;;12.43;10.05;;;;;;;16.47;100.00;100520.97;6333516;28;20544;-87
2023/09/11 05:50:09;;;;;;;12.45;9.95;;;;;;;16.52;100.00;100510.84;6323142;28;20402;-87
2023/09/11 05:53:12;;;;;;;13.00;10.25;;;;;;;16.58;100.00;100515.44;6332031;28;20044;-88
2023/09/11 05:56:14;;;;;;;14.65;10.25;;;;;;;16.65;100.00;100513.00;6327437;28;20043;-88
2023/09/11 05:59:18;;;;;;;14.90;10.20;;;;;;;16.71;100.00;100510.56;6325883;28;20052;-88
2023/09/11 06:02:20;;;;;;;15.15;10.07;;;;;;;16.84;100.00;100510.09;6324617;28;20052;-87
2023/09/11 06:05:23;;;;;;;18.23;10.65;;;;;;;16.91;100.00;100508.47;6327753;28;20051;-88
2023/09/11 06:08:25;;;;;;;13.68;9.80;;;;;;;16.96;100.00;100515.84;6327677;28;20047;-87
2023/09/11 06:11:28;;;;;;;13.10;10.45;;;;;;;16.97;100.00;100515.69;6325679;28;20793;-87
2023/09/11 06:14:30;;;;;;;14.57;9.70;;;;;;;17.00;100.00;100515.34;6328393;28;20081;-87
2023/09/11 06:17:33;;;;;;;13.38;10.30;;;;;;;17.03;100.00;100519.44;6329880;28;20067;-88
2023/09/11 06:20:46;;;;;;;15.20;10.05;;;;;;;17.07;100.00;100514.69;6331278;28;20528;-88
2023/09/11 06:23:48;;;;;;;15.95;10.65;;;;;;;17.16;100.00;100516.31;6320844;28;20036;-88
2023/09/11 06:27:03;;;;;;;14.55;10.40;;;;;;;17.27;100.00;100516.00;6331276;28;20034;-88
2023/09/11 06:30:05;;;;;;;13.82;11.32;;;;;;;17.36;100.00;100517.59;6324923;28;20032;-88
2023/09/11 06:33:08;;;;;;;14.90;11.18;;;;;;;17.43;100.00;100521.19;6330887;28;20052;-87
2023/09/11 06:36:10;;;;;;;13.18;10.43;;;;;;;17.51;100.00;100511.69;6337807;28;20046;-88
2023/09/11 06:39:11;;;;;;;18.02;10.23;;;;;;;17.59;100.00;100506.47;6330095;28;20040;-88
2023/09/11 06:42:24;;;;;;;15.75;10.45;;;;;;;17.65;100.00;100503.97;6320565;28;20630;-87
2023/09/11 06:45:26;;;;;;;14.82;10.43;;;;;;;17.72;100.00;100509.38;6329291;28;20054;-87
2023/09/11 06:48:28;;;;;;;15.65;10.82;;;;;;;17.78;100.00;100513.09;6329469;28;20053;-88
2023/09/11 06:51:31;;;;;;;16.77;9.95;;;;;;;17.84;100.00;100508.06;6317993;28;20047;-87
2023/09/11 06:54:32;;;;;;;13.82;10.25;;;;;;;17.90;100.00;100503.13;6330713;28;20051;-87
2023/09/11 06:57:53;;;;;;;14.32;10.85;;;;;;;17.99;100.00;100518.63;6332791;28;20047;-87
2023/09/11 07:00:55;;;;;;;17.85;10.65;;;;;;;18.03;100.00;100511.25;6325097;28;20613;-87
2023/09/11 07:03:57;;;;;;;14.15;10.60;;;;;;;18.14;100.00;100507.44;6326076;28;20036;-87
2023/09/11 07:07:00;;;;;;;16.20;11.57;;;;;;;18.20;100.00;100512.00;6332069;28;20493;-86
2023/09/11 07:10:03;;;;;;;13.07;9.65;;;;;;;18.27;100.00;100508.50;6321221;28;20482;-87
2023/09/11 07:13:05;;;;;;;13.95;9.88;;;;;;;18.34;100.00;100499.97;6324511;28;20493;-87
2023/09/11 07:16:07;;;;;;;18.27;9.95;;;;;;;18.44;100.00;100508.44;6329664;28;20074;-87
2023/09/11 07:19:09;;;;;;;12.25;9.82;;;;;;;18.56;100.00;100507.06;6323191;28;20036;-88
2023/09/11 07:22:11;;;;;;;14.73;10.43;;;;;;;18.69;100.00;100507.28;6318598;28;20040;-88
2023/09/11 07:25:16;;;;;;;12.05;9.75;;;;;;;18.79;100.00;100495.78;6312511;28;20044;-88
2023/09/11 07:28:18;;;;;;;14.68;9.60;;;;;;;18.87;100.00;100503.56;6327103;28;20520;-87
2023/09/11 07:31:20;;;;;;;14.52;9.32;;;;;;;18.95;100.00;100495.63;6324621;28;20035;-87
2023/09/11 07:34:22;;;;;;;15.95;9.73;;;;;;;19.01;100.00;100489.69;6321577;28;20048;-87
2023/09/11 07:37:24;;;;;;;16.55;10.07;;;;;;;19.08;100.00;100488.00;6325143;28;20024;-87
2023/09/11 07:40:26;;;;;;;16.23;9.88;;;;;;;19.15;100.00;100490.69;6325817;28;20040;-87
2023/09/11 07:43:28;;;;;;;16.63;9.38;;;;;;;19.26;100.00;100494.72;6333423;28;20579;-87
2023/09/11 07:46:30;;;;;;;16.35;9.73;;;;;;;19.32;100.00;100484.31;6326093;28;20047;-87
2023/09/11 07:49:32;;;;;;;16.23;9.73;;;;;;;19.38;100.00;100485.41;6324299;28;20070;-87
2023/09/11 07:52:35;;;;;;;16.00;9.50;;;;;;;19.45;100.00;100488.97;6324832;28;20220;-87
2023/09/11 07:55:37;;;;;;;13.55;9.23;;;;;;;19.53;100.00;100494.13;6327079;28;20122;-87
2023/09/11 07:58:39;;;;;;;17.50;9.25;;;;;;;19.62;100.00;100484.31;6322605;28;20055;-86
2023/09/11 08:01:42;;;;;;;18.33;10.32;;;;;;;19.71;100.00;100485.09;6328580;28;20424;-87
2023/09/11 08:04:43;;;;;;;16.77;9.07;;;;;;;19.80;100.00;100481.38;6328719;28;20032;-87
2023/09/11 08:07:47;;;;;;;13.95;9.55;;;;;;;19.91;100.00;100485.34;6324952;28;20399;-87
2023/09/11 08:10:49;;;;;;;16.10;9.20;;;;;;;20.01;100.00;100481.41;6321299;28;20040;-87
2023/09/11 08:13:53;;;;;;;16.50;9.38;;;;;;;20.13;100.00;100480.97;6326902;28;20338;-87
2023/09/11 08:16:55;;;;;;;19.85;8.55;;;;;;;20.25;100.00;100479.47;6329601;28;20059;-86
2023/09/11 08:19:57;;;;;;;14.05;8.93;;;;;;;20.33;100.00;100476.72;6314075;28;20047;-86
2023/09/11 08:22:59;;;;;;;13.75;8.48;;;;;;;20.41;100.00;100473.97;6324762;28;20044;-87
2023/09/11 08:26:01;;;;;;;15.20;8.35;;;;;;;20.50;100.00;100474.69;6301583;28;20040;-86
2023/09/11 08:29:04;;;;;;;18.23;8.70;;;;;;;20.61;100.00;100476.81;6326555;28;20040;-86
2023/09/11 08:32:06;;;;;;;28.25;9.25;;;;;;;20.71;100.00;100471.25;6326029;28;20048;-86
2023/09/11 08:35:08;;;;;;;12.10;8.05;;;;;;;20.81;100.00;100470.94;6325233;28;20054;-86
2023/09/11 08:38:10;;;;;;;15.50;8.25;;;;;;;20.92;100.00;100467.81;6324451;28;20417;-87
2023/09/11 08:41:14;;;;;;;16.58;8.18;;;;;;;21.04;100.00;100466.28;6325947;28;20392;-86
2023/09/11 08:44:16;;;;;;;12.52;8.05;;;;;;;21.17;100.00;100468.19;6318532;28;20110;-86
2023/09/11 08:47:20;;;;;;;12.75;7.50;;;;;;;21.27;100.00;100467.84;6339718;28;20114;-86
2023/09/11 08:50:31;;;;;;;13.85;8.10;;;;;;;21.38;100.00;100448.06;6330703;28;20044;-86
2023/09/11 08:53:38;;;;;;;17.38;7.50;;;;;;;21.52;100.00;100446.34;6320674;28;20557;-86
2023/09/11 08:56:42;;;;;;;20.73;8.48;;;;;;;21.66;100.00;100440.13;6328058;28;20071;-86
2023/09/11 08:59:48;;;;;;;14.00;7.53;;;;;;;21.76;100.00;100439.75;6322626;28;20028;-86
2023/09/11 09:02:51;;;;;;;17.50;7.97;;;;;;;21.88;100.00;100432.91;6333131;28;20393;-86
2023/09/11 09:05:57;;;;;;;14.35;6.60;;;;;;;21.97;100.00;100428.28;6326189;28;20048;-86
2023/09/11 09:09:00;;;;;;;12.60;6.82;;;;;;;22.05;100.00;100436.81;6326494;28;20044;-86
2023/09/11 09:12:04;;;;;;;14.32;6.40;;;;;;;22.20;100.00;100434.03;6329571;28;20044;-87
2023/09/11 09:15:06;;;;;;;16.85;6.40;;;;;;;22.35;100.00;100439.13;6324103;28;20391;-86
2023/09/11 09:18:08;;;;;;;13.30;6.47;;;;;;;22.42;100.00;100429.41;6323877;28;20047;-86
2023/09/11 09:21:11;;;;;;;15.20;6.65;;;;;;;22.57;100.00;100426.59;6317110;28;20063;-86
2023/09/11 09:24:17;;;;;;;18.02;6.90;;;;;;;22.68;100.00;100431.28;6326062;28;20468;-86
2023/09/11 09:27:21;;;;;;;17.58;6.03;;;;;;;22.76;100.00;100428.41;6333869;28;20510;-86
2023/09/11 09:30:29;;;;;;;19.20;7.13;;;;;;;22.89;100.00;100426.78;6330876;28;20527;-86
2023/09/11 09:33:32;;;;;;;19.73;6.93;;;;;;;22.99;100.00;100428.00;6322072;28;20111;-86
2023/09/11 09:36:34;;;;;;;17.55;6.82;;;;;;;23.09;100.00;100427.59;6329713;28;20040;-86
2023/09/11 09:39:40;;;;;;;21.52;7.45;;;;;;;23.15;100.00;100426.75;6334708;28;20531;-87
2023/09/11 09:42:44;;;;;;;10.77;5.97;;;;;;;23.22;100.00;100432.84;6333487;28;20032;-86
2023/09/11 09:45:46;;;;;;;20.27;7.35;;;;;;;23.37;100.00;100429.16;6331497;28;20523;-87
2023/09/11 09:48:48;;;;;;;15.85;6.60;;;;;;;23.47;100.00;100426.06;6326764;28;20374;-87
2023/09/11 09:51:52;;;;;;;16.85;6.20;;;;;;;23.57;100.00;100418.53;6326283;28;20024;-87
2023/09/11 09:54:59;;;;;;;20.10;7.03;;;;;;;23.68;100.00;100411.78;6324259;28;20838;-87
2023/09/11 09:58:01;;;;;;;20.67;7.18;;;;;;;23.80;100.00;100413.59;6329575;28;20039;-87
2023/09/11 10:01:12;;;;;;;17.13;6.47;;;;;;;23.86;100.00;100407.44;6318083;28;20032;-87
2023/09/11 10:04:15;;;;;;;13.82;6.40;;;;;;;23.92;100.00;100404.97;6330825;28;20032;-87
2023/09/11 10:07:39;;;;;;;17.42;6.82;;;;;;;24.07;100.00;100408.13;6324689;28;20104;-87
2023/09/11 10:10:41;;;;;;;19.08;7.57;;;;;;;24.17;100.00;100395.25;6325052;28;20040;-87
2023/09/11 10:13:45;;;;;;;14.98;6.50;;;;;;;24.25;100.00;100397.66;6333026;28;20067;-87
2023/09/11 10:16:47;;;;;;;19.40;6.82;;;;;;;24.44;100.00;100398.50;6333074;28;20515;-87
2023/09/11 10:19:50;;;;;;;24.50;7.32;;;;;;;24.56;100.00;100393.34;6330230;28;20236;-87
2023/09/11 10:22:55;;;;;;;28.45;7.15;;;;;;;24.63;100.00;100393.31;6321764;28;20043;-86
2023/09/11 10:26:04;;;;;;;18.15;6.45;;;;;;;24.76;100.00;100389.72;6322712;28;20032;-86
2023/09/11 10:29:09;;;;;;;16.85;6.47;;;;;;;24.88;100.00;100380.03;6326069;28;20074;-86
2023/09/11 10:32:57;;;;;;;18.45;6.43;;;;;;;25.06;100.00;100382.69;6329805;28;20040;-87
2023/09/11 10:36:04;;;;;;;21.25;7.53;;;;;;;25.12;100.00;100381.03;6229049;28;20057;-86
2023/09/11 10:39:11;;;;;;;21.73;7.88;;;;;;;25.18;100.00;100374.06;6225450;28;20111;-86
2023/09/11 10:42:14;;;;;;;22.88;7.53;;;;;;;25.24;100.00;100363.38;6229485;28;20332;-87
2023/09/11 10:45:32;;;;;;;27.75;6.95;;;;;;;25.39;100.00;100363.00;6221853;28;20060;-87
2023/09/11 10:48:34;;;;;;;14.60;6.07;;;;;;;25.65;100.00;100369.00;6230250;28;20060;-87
2023/09/11 10:51:36;;;;;;;24.15;6.88;;;;;;;25.75;100.00;100358.66;6227414;28;20061;-87
2023/09/11 10:54:40;;;;;;;19.40;6.50;;;;;;;25.69;100.00;100356.88;6222073;28;20045;-86
2023/09/11 10:57:41;;;;;;;19.85;6.00;;;;;;;25.80;100.00;100356.13;6230640;28;20064;-87
2023/09/11 11:00:43;;;;;;;20.27;5.90;;;;;;;25.98;100.00;100358.75;6224315;28;20049;-87
2023/09/11 11:03:46;;;;;;;21.83;6.53;;;;;;;26.09;100.00;100353.72;6220452;28;20060;-87
2023/09/11 11:06:50;;;;;;;18.08;5.82;;;;;;;26.12;100.00;100351.41;6223673;28;20274;-87
2023/09/11 11:09:52;;;;;;;17.30;6.25;;;;;;;26.12;100.00;100350.59;6220156;28;20566;-87
2023/09/11 11:13:09;;;;;;;18.38;6.22;;;;;;;26.14;100.00;100348.53;6306934;28;20082;-87
2023/09/11 11:16:19;;;;;;;13.07;5.63;;;;;;;26.32;100.00;100344.97;6324385;28;20470;-87
2023/09/11 11:19:32;;;;;;;17.20;6.38;;;;;;;26.43;100.00;100349.47;6326994;28;20040;-87
2023/09/11 11:22:40;;;;;;;18.13;5.97;;;;;;;26.55;100.00;100347.66;6327987;28;20039;-87
2023/09/11 11:25:42;;;;;;;16.75;6.30;;;;;;;26.60;100.00;100342.44;6329467;28;20040;-87
2023/09/11 11:28:45;;;;;;;18.35;5.43;;;;;;;26.58;100.00;100333.09;6321671;28;20043;-87
2023/09/11 11:31:53;;;;;;;17.80;6.13;;;;;;;26.48;100.00;100333.66;6317357;28;20537;-87
2023/09/11 11:35:00;;;;;;;15.68;6.15;;;;;;;26.57;100.00;100339.47;6323408;28;20050;-87
2023/09/11 11:38:02;;;;;;;15.20;5.70;;;;;;;26.60;100.00;100331.03;6313963;28;20118;-87
2023/09/11 11:41:08;;;;;;;17.38;6.40;;;;;;;26.69;100.00;100334.94;6337400;28;20032;-87
2023/09/11 11:44:10;;;;;;;17.20;5.45;;;;;;;26.71;100.00;100326.72;6336460;28;20348;-87
2023/09/11 11:47:12;;;;;;;21.15;6.00;;;;;;;26.69;100.00;100327.00;6336154;28;20384;-87
2023/09/11 11:50:14;;;;;;;18.40;5.70;;;;;;;26.84;100.00;100324.66;6327658;28;20048;-87
2023/09/11 11:53:18;;;;;;;20.17;6.25;;;;;;;26.95;100.00;100320.34;6323925;28;20070;-87
2023/09/11 11:56:27;;;;;;;18.20;5.55;;;;;;;27.17;100.00;100320.53;6331820;28;20048;-87
2023/09/11 11:59:38;;;;;;;12.40;5.80;;;;;;;27.30;100.00;100310.69;6320026;28;20036;-87
2023/09/11 12:02:40;;;;;;;21.88;5.90;;;;;;;27.33;100.00;100312.88;6323089;28;20036;-86
2023/09/11 12:05:43;;;;;;;16.35;5.45;;;;;;;27.41;100.00;100317.81;6321625;28;20102;-87
2023/09/11 12:08:46;;;;;;;17.40;5.53;;;;;;;27.59;100.00;100316.81;6328671;28;20035;-87
2023/09/11 12:11:50;;;;;;;15.32;5.20;;;;;;;27.71;100.00;100317.56;6325526;28;20039;-87
2023/09/11 12:14:56;;;;;;;13.55;5.03;;;;;;;27.78;100.00;100310.25;6318590;28;20129;-87
2023/09/11 12:17:58;;;;;;;16.90;5.47;;;;;;;27.80;100.00;100309.97;6327957;28;20044;-87
2023/09/11 12:21:03;;;;;;;16.58;6.10;;;;;;;27.82;100.00;100314.03;6334590;28;20040;-87
2023/09/11 12:24:08;;;;;;;16.23;5.57;;;;;;;27.87;100.00;100306.16;6328662;28;20486;-87
2023/09/11 12:27:12;;;;;;;14.50;4.95;;;;;;;27.95;100.00;100306.78;6328677;28;20032;-87
2023/09/11 12:30:15;;;;;;;13.98;4.65;;;;;;;28.05;100.00;100302.47;6327803;28;20436;-87
2023/09/11 12:33:35;;;;;;;12.73;5.43;;;;;;;28.23;100.00;100306.72;6336567;28;20040;-87
2023/09/11 12:36:37;;;;;;;8.40;4.50;;;;;;;28.40;100.00;100309.38;6327973;28;20827;-87
2023/09/11 12:39:40;;;;;;;12.65;4.43;;;;;;;28.35;100.00;100310.09;6327464;28;20401;-87
2023/09/11 12:42:42;;;;;;;11.68;4.38;;;;;;;28.41;100.00;100300.31;6329266;28;20047;-86
2023/09/11 12:45:44;;;;;;;10.10;4.72;;;;;;;28.49;100.00;100304.44;6329505;28;20040;-87
2023/09/11 12:48:47;;;;;;;14.82;5.05;;;;;;;28.64;100.00;100304.66;6322046;28;20043;-86
2023/09/11 12:51:49;;;;;;;14.90;4.88;;;;;;;28.76;100.00;100297.34;6333906;28;20051;-87
2023/09/11 12:54:54;;;;;;;8.07;4.70;;;;;;;28.80;100.00;100296.88;6328263;28;20160;-87
2023/09/11 12:58:00;;;;;;;9.95;4.65;;;;;;;28.95;100.00;100286.41;6333300;28;20048;-86
2023/09/11 13:01:02;;;;;;;8.77;4.95;;;;;;;29.05;100.00;100289.19;6327527;28;20105;-87
2023/09/11 13:04:11;;;;;;;8.27;4.95;;;;;;;29.17;100.00;100281.06;6316053;28;20512;-86
2023/09/11 13:07:13;;;;;;;10.88;4.93;;;;;;;29.27;100.00;100283.84;6327533;28;20054;-87
2023/09/11 13:10:15;;;;;;;9.05;4.90;;;;;;;29.47;100.00;100285.91;6328487;28;20119;-86
2023/09/11 13:13:17;;;;;;;12.75;5.00;;;;;;;29.70;100.00;100279.47;6323071;28;20036;-86
2023/09/11 13:16:35;;;;;;;12.55;5.15;;;;;;;29.95;100.00;100273.50;6328713;28;20043;-86
2023/09/11 13:19:37;;;;;;;8.80;4.95;;;;;;;30.01;100.00;100271.69;6324990;28;20047;-86
2023/09/11 13:22:42;;;;;;;8.98;4.82;;;;;;;30.13;100.00;100269.63;6321518;28;20094;-86
2023/09/11 13:25:44;;;;;;;8.90;5.53;;;;;;;30.29;100.00;100269.78;6328676;28;20073;-87
2023/09/11 13:28:46;;;;;;;9.90;4.70;;;;;;;30.47;100.00;100272.00;6322517;28;20036;-86
2023/09/11 13:31:48;;;;;;;8.27;5.03;;;;;;;30.67;100.00;100272.09;6336829;28;20043;-86
2023/09/11 13:34:50;;;;;;;10.30;5.05;;;;;;;30.74;97.00;100263.84;6324063;28;20067;-86
2023/09/11 13:37:52;;;;;;;10.43;5.00;;;;;;;30.85;100.00;100265.50;6336536;28;20124;-87
2023/09/11 13:40:54;;;;;;;7.78;5.38;;;;;;;30.82;100.00;100249.97;6336487;28;20048;-87
2023/09/11 13:43:56;;;;;;;7.75;4.97;;;;;;;30.83;99.26;100250.78;6337647;28;20058;-87
2023/09/11 13:46:59;;;;;;;11.32;4.85;;;;;;;31.06;97.64;100254.88;6332483;28;20044;-86
2023/09/11 13:50:00;;;;;;;8.40;5.30;;;;;;;31.11;94.79;100253.00;6327898;28;20047;-87
2023/09/11 13:53:03;;;;;;;10.77;5.45;;;;;;;31.17;90.44;100248.47;6328304;28;20075;-87
2023/09/11 13:56:05;;;;;;;7.95;4.97;;;;;;;31.18;88.41;100243.91;6331791;28;20048;-86